Time;durP1;ratioP1;P1;durP2;ratioP2;P2;SDS_P1;SDS_P2;PMS_P1;PMS_P2;Temp;Humidity;BMP_temperature;BMP_pressure;BME280_temperature;BME280_humidity;BME280_pressure;Samples;Min_cycle;Max_cycle;Signal;HPM_P1;HPM_P2
2021/10/28 00:14:15;;;;;;;0.50;0.50;;;19.00;72.40;;;;;;5033478;28;20028;-68
2021/10/28 00:16:42;;;;;;;0.47;0.40;;;19.00;72.50;;;;;;5034418;28;20021;-68
2021/10/28 00:19:08;;;;;;;0.50;0.50;;;19.00;72.50;;;;;;5034556;28;20052;-68
2021/10/28 00:21:35;;;;;;;0.68;0.60;;;19.00;72.50;;;;;;5034318;28;20061;-68
2021/10/28 00:24:04;;;;;;;0.35;0.35;;;19.00;72.50;;;;;;5032796;28;20018;-68
2021/10/28 00:26:30;;;;;;;0.65;0.55;;;19.00;72.50;;;;;;5050623;28;20029;-68
2021/10/28 00:28:59;;;;;;;0.85;0.30;;;19.00;72.50;;;;;;5053941;28;20025;-68
2021/10/28 00:31:26;;;;;;;0.75;0.45;;;19.00;72.50;;;;;;5053060;28;20025;-68
2021/10/28 00:33:51;;;;;;;0.88;0.50;;;19.00;72.50;;;;;;5053903;28;20017;-68
2021/10/28 00:36:17;;;;;;;0.68;0.50;;;19.00;72.50;;;;;;5053102;28;20009;-68
2021/10/28 00:38:43;;;;;;;0.30;0.30;;;19.00;72.60;;;;;;5052513;28;20470;-68
2021/10/28 00:41:08;;;;;;;0.40;0.40;;;19.00;72.50;;;;;;5052731;28;20500;-68
2021/10/28 00:43:34;;;;;;;0.88;0.45;;;19.00;72.50;;;;;;5052906;28;20033;-68
2021/10/28 00:46:02;;;;;;;0.60;0.43;;;19.00;72.70;;;;;;5053740;28;20448;-68
2021/10/28 00:48:28;;;;;;;0.40;0.40;;;19.00;72.60;;;;;;5052670;28;20025;-68
2021/10/28 00:50:54;;;;;;;0.45;0.40;;;19.00;72.60;;;;;;5053689;28;20067;-68
2021/10/28 00:53:22;;;;;;;0.40;0.40;;;19.00;72.60;;;;;;5052234;28;20021;-68
2021/10/28 00:55:49;;;;;;;0.30;0.30;;;19.00;72.70;;;;;;5052354;28;20021;-68
2021/10/28 00:58:20;;;;;;;0.43;0.40;;;19.00;72.70;;;;;;5052364;28;20056;-68
2021/10/28 01:00:46;;;;;;;0.68;0.40;;;18.90;72.60;;;;;;5053490;28;20056;-68
2021/10/28 01:03:11;;;;;;;0.75;0.40;;;18.90;72.80;;;;;;5053419;28;20052;-68
2021/10/28 01:05:37;;;;;;;0.40;0.40;;;19.00;72.70;;;;;;5052139;28;20421;-69
2021/10/28 01:08:03;;;;;;;0.50;0.50;;;19.00;72.70;;;;;;5051692;28;20049;-68
2021/10/28 01:10:30;;;;;;;0.43;0.43;;;18.90;72.60;;;;;;5052127;28;20017;-68
2021/10/28 01:12:55;;;;;;;0.77;0.68;;;18.90;72.60;;;;;;5052031;28;20020;-68
2021/10/28 01:15:21;;;;;;;0.93;0.60;;;18.90;72.70;;;;;;5052082;28;20470;-68
2021/10/28 01:17:47;;;;;;;0.80;0.50;;;18.90;72.70;;;;;;5051954;28;20021;-68
2021/10/28 01:20:12;;;;;;;0.73;0.47;;;18.90;72.70;;;;;;5052008;28;20029;-68
2021/10/28 01:22:40;;;;;;;0.30;0.30;;;18.90;72.80;;;;;;5052967;28;20025;-68
2021/10/28 01:25:06;;;;;;;0.65;0.55;;;18.90;72.80;;;;;;5052880;28;20032;-68
2021/10/28 01:27:31;;;;;;;1.42;0.47;;;18.90;72.80;;;;;;5052909;28;20032;-68
2021/10/28 01:29:57;;;;;;;0.40;0.30;;;18.90;72.80;;;;;;5051679;28;20024;-68
2021/10/28 01:32:23;;;;;;;1.52;0.68;;;18.90;72.80;;;;;;5052860;28;20425;-68
2021/10/28 01:34:48;;;;;;;1.83;0.50;;;18.90;72.80;;;;;;5051677;28;20025;-68
2021/10/28 01:37:15;;;;;;;0.63;0.43;;;18.90;72.80;;;;;;5052501;28;20044;-68
2021/10/28 01:39:41;;;;;;;0.90;0.63;;;18.90;72.80;;;;;;5051595;28;20025;-68
2021/10/28 01:42:10;;;;;;;1.65;0.60;;;18.90;72.80;;;;;;5051479;28;20027;-68
2021/10/28 01:44:40;;;;;;;0.50;0.50;;;18.90;72.90;;;;;;5051725;28;20037;-68
2021/10/28 01:47:06;;;;;;;0.50;0.50;;;18.90;72.80;;;;;;5051308;28;20024;-68
2021/10/28 01:49:32;;;;;;;0.60;0.50;;;18.90;72.80;;;;;;5052752;28;20509;-68
2021/10/28 01:51:58;;;;;;;0.50;0.50;;;18.90;72.90;;;;;;5067450;28;20517;-68
2021/10/28 01:54:25;;;;;;;0.55;0.50;;;18.90;72.90;;;;;;5052691;28;20025;-68
2021/10/28 01:56:51;;;;;;;0.40;0.32;;;18.90;72.90;;;;;;5051341;28;20024;-68
2021/10/28 01:59:17;;;;;;;0.73;0.50;;;18.90;72.90;;;;;;5051317;28;20527;-68
2021/10/28 02:01:42;;;;;;;1.95;0.50;;;18.90;72.90;;;;;;5052350;28;20029;-68
2021/10/28 02:04:08;;;;;;;0.45;0.38;;;18.90;73.00;;;;;;5052280;28;20029;-68
2021/10/28 02:06:34;;;;;;;0.80;0.50;;;18.90;72.90;;;;;;5051806;28;20053;-68
2021/10/28 02:09:00;;;;;;;0.50;0.50;;;18.90;73.00;;;;;;5051034;28;20091;-68
2021/10/28 02:11:26;;;;;;;0.57;0.40;;;18.90;73.00;;;;;;5051317;28;20021;-68
2021/10/28 02:13:53;;;;;;;0.52;0.50;;;18.90;73.00;;;;;;5050778;28;20031;-68
2021/10/28 02:16:18;;;;;;;1.38;0.50;;;18.90;73.00;;;;;;5050840;28;20021;-68
2021/10/28 02:18:44;;;;;;;0.50;0.50;;;18.90;73.00;;;;;;5052336;28;20025;-68
2021/10/28 02:21:10;;;;;;;0.40;0.40;;;18.90;73.10;;;;;;5050764;28;20051;-68
2021/10/28 02:23:36;;;;;;;0.70;0.50;;;18.90;73.10;;;;;;5034506;28;20056;-68
2021/10/28 02:26:01;;;;;;;0.82;0.40;;;18.90;73.10;;;;;;5049863;28;20452;-68
2021/10/28 02:28:27;;;;;;;0.30;0.30;;;18.80;73.10;;;;;;5051492;28;20102;-68
2021/10/28 02:30:52;;;;;;;1.33;0.52;;;18.80;73.00;;;;;;5050237;28;20067;-68
2021/10/28 02:33:18;;;;;;;0.50;0.50;;;18.90;73.10;;;;;;5030912;28;20025;-68
2021/10/28 02:35:44;;;;;;;0.50;0.40;;;18.80;73.00;;;;;;5061846;28;20022;-68
2021/10/28 02:38:09;;;;;;;0.55;0.50;;;18.90;73.20;;;;;;5030862;28;20363;-68
2021/10/28 02:40:35;;;;;;;0.30;0.30;;;18.80;73.10;;;;;;5046773;28;20119;-68
2021/10/28 02:43:01;;;;;;;0.50;0.50;;;18.90;73.20;;;;;;5047131;28;20172;-67
2021/10/28 02:45:26;;;;;;;0.88;0.40;;;18.80;73.10;;;;;;5032446;28;20068;-68
2021/10/28 02:47:53;;;;;;;1.15;0.40;;;18.80;73.10;;;;;;5063580;28;20032;-68
2021/10/28 02:50:19;;;;;;;0.80;0.60;;;18.90;73.20;;;;;;5031520;28;20111;-68
2021/10/28 02:52:44;;;;;;;0.55;0.50;;;18.90;73.20;;;;;;5031864;28;20025;-68
2021/10/28 02:55:10;;;;;;;1.80;0.50;;;18.90;73.30;;;;;;5046322;28;20386;-68
2021/10/28 02:57:40;;;;;;;0.60;0.60;;;18.90;73.20;;;;;;5047159;28;20032;-68
2021/10/28 03:00:06;;;;;;;0.45;0.30;;;18.90;73.30;;;;;;5063273;28;20028;-68
2021/10/28 03:02:32;;;;;;;1.23;0.70;;;18.90;73.60;;;;;;5031624;28;20064;-68
2021/10/28 03:04:57;;;;;;;0.52;0.50;;;18.90;73.30;;;;;;5063506;28;20045;-68
2021/10/28 03:07:23;;;;;;;0.40;0.40;;;18.80;73.20;;;;;;5040706;28;20477;-68
2021/10/28 03:09:50;;;;;;;0.30;0.30;;;18.80;73.30;;;;;;5051884;28;20478;-68
2021/10/28 03:12:15;;;;;;;0.47;0.47;;;18.80;73.30;;;;;;5034093;28;20029;-68
2021/10/28 03:14:46;;;;;;;1.55;0.50;;;18.80;73.30;;;;;;5034021;28;20070;-68
2021/10/28 03:17:26;;;;;;;0.60;0.60;;;18.80;73.30;;;;;;5051473;28;20021;-68
2021/10/28 03:27:46;;;;;;;0.52;0.40;;;18.80;73.40;;;;;;5053927;28;20083;-68
2021/10/28 03:30:12;;;;;;;1.75;0.50;;;18.80;73.40;;;;;;5053863;28;20017;-68
2021/10/28 03:32:38;;;;;;;0.57;0.50;;;18.80;73.40;;;;;;5053871;28;20031;-68
2021/10/28 03:35:06;;;;;;;0.63;0.40;;;18.80;73.50;;;;;;5055081;28;20056;-68
2021/10/28 03:37:47;;;;;;;0.60;0.57;;;18.80;73.40;;;;;;5054039;28;20021;-68
2021/10/28 04:17:16;;;;;;;1.25;0.50;;;18.70;73.60;;;;;;5012267;28;20068;-68
2021/10/28 04:30:25;;;;;;;0.77;0.43;;;18.80;73.80;;;;;;4953914;29;20047;-68
2021/10/28 04:32:51;;;;;;;0.68;0.30;;;18.70;73.80;;;;;;4954025;29;20039;-68
2021/10/28 04:35:17;;;;;;;0.52;0.52;;;18.70;73.70;;;;;;4953666;29;20036;-68
2021/10/28 04:37:44;;;;;;;0.40;0.40;;;18.80;73.90;;;;;;4953460;28;20031;-68
2021/10/28 04:40:10;;;;;;;0.50;0.40;;;18.80;73.80;;;;;;4953623;29;20031;-68
2021/10/28 04:42:36;;;;;;;0.50;0.35;;;18.80;73.80;;;;;;4953547;29;20047;-68
2021/10/28 04:45:03;;;;;;;0.95;0.50;;;18.80;73.80;;;;;;4959626;28;20046;-68
2021/10/28 04:47:28;;;;;;;0.50;0.50;;;18.80;73.80;;;;;;4992280;28;20030;-68
2021/10/28 04:49:54;;;;;;;1.45;0.50;;;18.80;73.80;;;;;;4992441;28;20124;-68
2021/10/28 04:52:21;;;;;;;0.80;0.52;;;18.80;73.80;;;;;;4992098;28;20487;-68
2021/10/28 04:54:47;;;;;;;0.40;0.40;;;18.70;73.80;;;;;;4992461;28;20065;-68
2021/10/28 04:57:13;;;;;;;0.60;0.50;;;18.80;73.90;;;;;;4992051;28;20523;-68
2021/10/28 04:59:38;;;;;;;0.40;0.40;;;18.70;73.80;;;;;;4991901;28;20022;-67
2021/10/28 05:02:04;;;;;;;0.60;0.50;;;18.70;73.90;;;;;;5016290;28;20056;-68
2021/10/28 05:04:30;;;;;;;0.63;0.50;;;18.80;73.90;;;;;;5032267;28;20407;-68
2021/10/28 05:06:55;;;;;;;0.95;0.50;;;18.80;73.90;;;;;;5038605;28;20102;-68
2021/10/28 05:09:41;;;;;;;1.67;0.45;;;18.70;73.80;;;;;;5053200;28;20474;-68
2021/10/28 05:12:07;;;;;;;0.57;0.57;;;18.70;73.80;;;;;;5052262;28;20024;-68
2021/10/28 05:14:33;;;;;;;0.60;0.40;;;18.70;73.90;;;;;;5053065;28;20092;-68
2021/10/28 05:16:58;;;;;;;0.52;0.50;;;18.70;73.90;;;;;;5053217;28;20017;-68
2021/10/28 05:19:32;;;;;;;0.50;0.50;;;18.70;74.00;;;;;;5053085;28;20048;-68
2021/10/28 05:21:58;;;;;;;0.98;0.60;;;18.70;73.90;;;;;;5052167;28;20041;-68
2021/10/28 05:24:23;;;;;;;0.90;0.50;;;18.70;73.90;;;;;;5051758;28;20604;-68
2021/10/28 05:26:49;;;;;;;0.80;0.60;;;18.70;73.90;;;;;;5053080;28;20028;-68
2021/10/28 05:29:15;;;;;;;0.40;0.40;;;18.70;73.90;;;;;;5052408;28;20053;-68
2021/10/28 05:31:40;;;;;;;0.95;0.68;;;18.80;74.00;;;;;;5053123;28;20035;-68
2021/10/28 05:34:06;;;;;;;0.40;0.40;;;18.70;73.90;;;;;;5051680;28;20425;-68
2021/10/28 05:36:31;;;;;;;0.47;0.45;;;18.70;73.90;;;;;;5051572;28;20044;-68
2021/10/28 05:38:57;;;;;;;0.43;0.43;;;18.70;74.00;;;;;;5052852;28;20037;-68
2021/10/28 05:41:23;;;;;;;0.60;0.40;;;18.70;74.00;;;;;;5051614;28;20087;-68
2021/10/28 05:43:48;;;;;;;0.68;0.38;;;18.70;74.00;;;;;;5052421;28;20392;-68
2021/10/28 05:46:14;;;;;;;0.40;0.40;;;18.70;74.00;;;;;;5052692;28;20063;-68
2021/10/28 05:48:39;;;;;;;0.95;0.60;;;18.70;74.00;;;;;;5040749;28;20025;-68
2021/10/28 05:51:05;;;;;;;0.55;0.55;;;18.70;74.00;;;;;;5032630;28;20478;-68
2021/10/28 05:53:31;;;;;;;0.77;0.60;;;18.70;74.10;;;;;;5036468;28;20024;-68
2021/10/28 05:55:57;;;;;;;0.65;0.50;;;18.70;75.10;;;;;;5054234;28;20026;-68
2021/10/28 05:58:23;;;;;;;0.47;0.47;;;18.70;74.00;;;;;;5039026;28;20045;-68
2021/10/28 06:00:48;;;;;;;0.85;0.50;;;18.70;74.00;;;;;;5044979;28;20037;-68
2021/10/28 06:03:14;;;;;;;0.45;0.45;;;18.70;74.00;;;;;;5042017;28;20029;-68
2021/10/28 06:05:40;;;;;;;1.10;0.40;;;18.70;74.10;;;;;;5067899;28;20029;-68
2021/10/28 06:08:05;;;;;;;0.43;0.43;;;18.70;74.10;;;;;;5051078;28;20103;-68
2021/10/28 06:10:32;;;;;;;0.68;0.65;;;18.80;74.10;;;;;;5062705;28;20059;-68
2021/10/28 06:13:01;;;;;;;0.70;0.63;;;18.70;74.10;;;;;;5055554;28;20021;-68
2021/10/28 06:15:29;;;;;;;0.60;0.60;;;18.70;74.10;;;;;;5067334;28;20076;-68
2021/10/28 06:20:40;;;;;;;0.73;0.73;;;18.70;74.00;;;;;;5017596;28;20046;-68
2021/10/28 06:23:06;;;;;;;0.70;0.70;;;18.70;74.10;;;;;;5026116;28;20037;-68
2021/10/28 06:25:32;;;;;;;0.80;0.80;;;18.70;74.00;;;;;;5015746;28;20058;-68
2021/10/28 06:27:58;;;;;;;0.98;0.60;;;18.70;74.00;;;;;;5016348;28;20029;-68
2021/10/28 06:30:24;;;;;;;0.93;0.55;;;18.70;74.00;;;;;;5019834;28;20517;-68
2021/10/28 06:32:53;;;;;;;1.33;0.80;;;18.70;74.00;;;;;;5023747;28;20041;-68
2021/10/28 06:35:20;;;;;;;1.48;0.70;;;18.70;74.00;;;;;;5029926;28;20501;-68
2021/10/28 06:37:47;;;;;;;1.02;0.80;;;18.70;74.00;;;;;;5029507;28;20040;-68
2021/10/28 06:40:13;;;;;;;3.90;0.90;;;18.60;74.00;;;;;;5029441;28;20022;-69
2021/10/28 06:42:39;;;;;;;1.00;0.90;;;18.60;74.00;;;;;;5017561;28;20026;-68
2021/10/28 06:45:05;;;;;;;4.32;1.20;;;18.60;74.00;;;;;;5009892;28;20046;-68
2021/10/28 06:47:31;;;;;;;4.45;1.25;;;18.60;74.00;;;;;;4993365;28;20034;-68
2021/10/28 06:49:59;;;;;;;2.90;1.10;;;18.60;74.00;;;;;;5008833;28;20108;-68
2021/10/28 06:52:33;;;;;;;5.80;1.75;;;18.60;74.00;;;;;;5010025;28;20053;-68
2021/10/28 06:55:05;;;;;;;3.42;1.48;;;18.60;74.00;;;;;;5010296;28;20037;-68
2021/10/28 06:57:59;;;;;;;4.80;1.55;;;18.60;74.00;;;;;;5026453;28;20508;-68
2021/10/28 07:03:06;;;;;;;4.53;1.60;;;18.60;74.00;;;;;;5055886;28;20024;-68
2021/10/28 07:05:32;;;;;;;6.18;1.50;;;18.60;74.00;;;;;;5054445;28;20029;-68
2021/10/28 07:07:58;;;;;;;4.18;1.67;;;18.60;74.00;;;;;;5055550;28;20037;-68
2021/10/28 07:10:24;;;;;;;5.00;2.00;;;18.60;74.00;;;;;;5054169;28;20032;-68
2021/10/28 07:13:14;;;;;;;4.25;1.70;;;18.60;74.00;;;;;;5054576;28;20017;-69
2021/10/28 07:15:46;;;;;;;3.78;1.73;;;18.60;73.90;;;;;;5054278;28;20048;-68
2021/10/28 07:23:38;;;;;;;5.15;1.23;;;18.50;74.10;;;;;;5054390;28;20036;-68
2021/10/28 08:17:08;;;;;;;3.42;1.58;;;18.40;73.80;;;;;;5032464;28;20180;-68
2021/10/28 08:19:47;;;;;;;3.97;1.27;;;18.40;73.70;;;;;;5032369;28;20026;-68
2021/10/28 08:22:23;;;;;;;4.63;1.48;;;18.40;73.70;;;;;;5032399;28;20083;-68
2021/10/28 08:30:11;;;;;;;3.67;1.13;;;18.40;73.70;;;;;;5018385;28;20098;-68
2021/10/28 08:32:37;;;;;;;2.33;1.20;;;18.40;73.70;;;;;;5015707;28;20084;-68
2021/10/28 08:35:04;;;;;;;3.50;1.40;;;18.40;73.70;;;;;;5015607;28;20021;-68
2021/10/28 08:40:06;;;;;;;3.40;1.30;;;18.30;73.50;;;;;;5016866;28;20022;-68
2021/10/28 08:42:32;;;;;;;1.75;1.13;;;18.40;73.60;;;;;;5023894;28;20482;-68
2021/10/28 08:44:58;;;;;;;2.75;1.50;;;18.40;73.60;;;;;;5054007;28;20032;-68
2021/10/28 08:47:26;;;;;;;3.90;1.25;;;18.40;73.60;;;;;;5052684;28;20474;-68
2021/10/28 09:25:03;;;;;;;3.88;1.20;;;18.30;73.50;;;;;;4997980;28;20122;-68
2021/10/28 09:27:42;;;;;;;3.03;1.33;;;18.30;73.50;;;;;;5030932;28;20409;-68
2021/10/28 09:30:20;;;;;;;1.05;0.98;;;18.40;73.40;;;;;;5031008;28;20031;-68
2021/10/28 09:32:51;;;;;;;2.80;1.48;;;18.30;73.50;;;;;;5031059;28;20079;-68
2021/10/28 09:43:42;;;;;;;1.90;1.15;;;18.30;73.40;;;;;;5053122;28;20032;-68
2021/10/28 09:51:47;;;;;;;3.65;1.33;;;18.30;73.30;;;;;;5052408;28;20513;-68
2021/10/28 09:54:36;;;;;;;1.58;1.08;;;18.30;73.30;;;;;;5051622;28;20098;-68
2021/10/28 09:59:46;;;;;;;1.45;1.10;;;18.30;73.30;;;;;;5051739;28;20048;-68
2021/10/28 10:05:16;;;;;;;1.50;1.30;;;18.30;73.30;;;;;;5051386;28;20060;-68
2021/10/28 10:07:42;;;;;;;1.50;1.05;;;18.30;73.30;;;;;;5052040;28;20041;-68
2021/10/28 10:10:08;;;;;;;2.75;1.40;;;18.30;73.40;;;;;;5034575;28;20379;-68
2021/10/28 10:12:38;;;;;;;1.75;1.35;;;18.30;73.20;;;;;;5051242;28;20519;-68
2021/10/28 10:15:05;;;;;;;2.13;1.42;;;18.30;73.20;;;;;;5052281;28;20032;-68
2021/10/28 10:17:31;;;;;;;3.58;1.50;;;18.30;73.20;;;;;;5034782;28;20021;-68
2021/10/28 10:19:58;;;;;;;5.07;1.63;;;18.30;73.20;;;;;;5050911;28;20154;-68
2021/10/28 10:23:21;;;;;;;2.83;1.38;;;18.30;73.20;;;;;;5051093;28;20045;-68
2021/10/28 11:05:41;;;;;;;2.88;1.27;;;18.20;73.30;;;;;;5054950;28;20524;-68
2021/10/28 12:56:08;;;;;;;1.77;1.10;;;18.40;73.20;;;;;;5038937;28;20031;-68
2021/10/28 13:54:18;;;;;;;1.15;1.05;;;18.50;73.10;;;;;;4975507;28;20027;-68
2021/10/28 15:35:38;;;;;;;0.80;0.80;;;18.60;73.00;;;;;;5054388;28;20032;-68
2021/10/28 15:38:20;;;;;;;1.02;1.00;;;18.60;73.00;;;;;;5055082;28;20021;-68
2021/10/28 15:41:13;;;;;;;1.33;1.00;;;18.50;73.10;;;;;;5054323;28;20021;-68
2021/10/28 15:57:30;;;;;;;1.15;1.00;;;18.50;73.00;;;;;;5032689;28;20053;-68
2021/10/28 16:21:54;;;;;;;1.73;0.90;;;18.50;73.00;;;;;;5012232;28;20120;-68
2021/10/28 16:24:28;;;;;;;1.38;0.90;;;18.60;73.00;;;;;;5032418;28;20130;-68
2021/10/28 16:26:54;;;;;;;1.08;0.93;;;18.50;73.00;;;;;;5052881;28;20025;-68
2021/10/28 16:29:20;;;;;;;1.05;0.95;;;18.50;73.00;;;;;;5052923;28;20406;-68
2021/10/28 16:31:46;;;;;;;1.30;1.00;;;18.50;72.90;;;;;;5054255;28;20025;-68
2021/10/28 16:34:12;;;;;;;2.25;0.80;;;18.50;72.90;;;;;;5052357;28;20040;-68
2021/10/28 16:36:38;;;;;;;1.23;1.05;;;18.60;72.90;;;;;;5052698;28;20608;-69
2021/10/28 16:39:08;;;;;;;0.98;0.80;;;18.60;72.90;;;;;;5052883;28;20103;-69
2021/10/28 16:41:35;;;;;;;1.17;1.00;;;18.50;72.80;;;;;;5054028;28;20159;-68
2021/10/28 16:44:01;;;;;;;1.10;1.00;;;18.50;72.80;;;;;;5053118;28;20091;-68
2021/10/28 16:46:27;;;;;;;1.33;0.90;;;18.60;72.90;;;;;;5053827;28;20021;-68
2021/10/28 16:48:53;;;;;;;1.38;1.00;;;18.50;72.80;;;;;;5052746;28;20375;-68
2021/10/28 16:51:18;;;;;;;1.38;1.00;;;18.60;72.90;;;;;;5052454;28;20040;-68
2021/10/28 16:53:45;;;;;;;1.83;1.10;;;18.60;72.90;;;;;;5052682;28;20473;-68
2021/10/28 16:56:14;;;;;;;1.10;0.90;;;18.50;72.80;;;;;;5053774;28;20021;-68
2021/10/28 16:58:40;;;;;;;1.23;1.13;;;18.60;72.80;;;;;;5052587;28;20029;-68
2021/10/28 17:01:06;;;;;;;1.27;0.90;;;18.60;72.80;;;;;;5052473;28;20025;-68
2021/10/28 17:03:32;;;;;;;0.90;0.88;;;18.60;72.80;;;;;;5040629;28;20041;-68
2021/10/28 17:05:58;;;;;;;1.67;1.13;;;18.50;72.80;;;;;;5040202;28;20040;-69
2021/10/28 17:08:23;;;;;;;1.23;1.00;;;18.60;72.90;;;;;;5034271;28;20108;-68
2021/10/28 17:10:49;;;;;;;0.85;0.85;;;18.50;72.80;;;;;;5052607;28;20476;-68
2021/10/28 17:13:14;;;;;;;1.00;0.70;;;18.50;72.80;;;;;;5026331;28;20024;-68
2021/10/28 17:15:40;;;;;;;1.45;0.93;;;18.60;72.80;;;;;;5040843;28;20100;-68
2021/10/28 17:18:06;;;;;;;1.95;1.23;;;18.60;72.80;;;;;;5037693;28;20401;-68
2021/10/28 17:20:36;;;;;;;2.00;1.00;;;18.60;72.80;;;;;;5044920;28;20069;-68
2021/10/28 17:23:02;;;;;;;0.95;0.85;;;18.60;72.80;;;;;;5041066;28;20074;-69
2021/10/28 17:25:29;;;;;;;0.80;0.80;;;18.60;72.90;;;;;;5047236;28;20020;-69
2021/10/28 17:27:54;;;;;;;1.75;1.02;;;18.60;72.80;;;;;;5055041;28;20032;-69
2021/10/28 17:30:21;;;;;;;1.00;0.82;;;18.60;72.80;;;;;;5055594;28;20385;-69
2021/10/28 17:32:47;;;;;;;1.10;0.90;;;18.60;72.80;;;;;;5048316;28;20386;-69
2021/10/28 17:35:13;;;;;;;1.00;0.90;;;18.60;72.80;;;;;;5045299;28;20017;-69
2021/10/28 17:37:40;;;;;;;0.98;0.90;;;18.60;72.80;;;;;;5053435;28;20511;-68
2021/10/28 17:40:06;;;;;;;1.58;0.88;;;18.60;72.80;;;;;;5046796;28;20022;-69
2021/10/28 17:42:33;;;;;;;1.10;0.95;;;18.60;72.80;;;;;;5041766;28;20083;-69
2021/10/28 17:45:00;;;;;;;1.15;0.95;;;18.60;72.80;;;;;;5044443;28;20032;-69
2021/10/28 17:47:26;;;;;;;0.73;0.70;;;18.60;72.80;;;;;;5045098;28;20013;-69
2021/10/28 17:49:52;;;;;;;1.25;1.00;;;18.60;72.80;;;;;;5041710;28;20025;-69
2021/10/28 17:52:18;;;;;;;0.85;0.85;;;18.60;72.70;;;;;;5039984;28;20499;-69
2021/10/28 17:54:45;;;;;;;1.20;0.85;;;18.60;72.80;;;;;;5056945;28;20030;-68
2021/10/28 17:57:10;;;;;;;1.25;0.90;;;18.60;72.90;;;;;;5033900;28;20477;-68
2021/10/28 17:59:36;;;;;;;2.03;0.93;;;18.60;72.80;;;;;;5064830;28;20032;-69
2021/10/28 18:02:02;;;;;;;2.35;1.00;;;18.60;72.90;;;;;;5044440;28;20497;-69
2021/10/28 18:04:28;;;;;;;1.13;0.75;;;18.70;72.90;;;;;;5043458;28;20021;-69
2021/10/28 18:06:53;;;;;;;2.15;0.80;;;18.60;72.90;;;;;;5051228;28;20091;-68
2021/10/28 18:09:22;;;;;;;2.60;0.82;;;18.60;72.90;;;;;;5050578;28;20032;-68
2021/10/28 18:11:49;;;;;;;2.10;0.90;;;18.60;72.80;;;;;;5066849;28;20116;-68
2021/10/28 18:14:16;;;;;;;0.93;0.82;;;18.60;72.90;;;;;;5051368;28;20009;-68
2021/10/28 18:16:42;;;;;;;2.30;0.75;;;18.70;72.90;;;;;;5050766;28;20091;-68
2021/10/28 18:19:08;;;;;;;1.52;0.95;;;18.60;72.90;;;;;;5050987;28;20470;-68
2021/10/28 18:21:36;;;;;;;0.80;0.80;;;18.60;72.90;;;;;;5051460;28;20026;-68
2021/10/28 18:24:02;;;;;;;1.42;1.00;;;18.70;72.90;;;;;;5058465;28;20020;-69
2021/10/28 18:26:28;;;;;;;0.98;0.75;;;18.70;72.90;;;;;;5055226;28;20100;-69
2021/10/28 18:28:54;;;;;;;1.63;0.98;;;18.60;72.90;;;;;;5058865;28;20021;-69
2021/10/28 18:31:19;;;;;;;0.80;0.80;;;18.70;73.00;;;;;;5056356;28;20028;-69
2021/10/28 18:33:46;;;;;;;2.05;1.00;;;18.70;73.00;;;;;;5065778;28;20032;-69
2021/10/28 18:36:12;;;;;;;0.93;0.90;;;18.70;73.00;;;;;;5060576;28;20013;-68
2021/10/28 18:38:38;;;;;;;3.03;1.00;;;18.70;73.00;;;;;;5061584;28;20031;-68
2021/10/28 18:41:04;;;;;;;5.18;1.10;;;18.70;73.00;;;;;;5059211;28;20021;-68
2021/10/28 18:43:29;;;;;;;1.65;1.00;;;18.60;73.00;;;;;;5058187;28;20025;-69
2021/10/28 18:45:56;;;;;;;0.80;0.75;;;18.70;73.00;;;;;;5060380;28;20566;-68
2021/10/28 18:48:23;;;;;;;1.98;1.08;;;18.70;73.00;;;;;;5062621;28;20031;-68
2021/10/28 18:50:48;;;;;;;1.23;0.90;;;18.70;73.00;;;;;;5059943;28;20128;-68
2021/10/28 18:53:14;;;;;;;1.00;0.90;;;18.70;73.10;;;;;;5038793;28;20461;-69
2021/10/28 18:55:40;;;;;;;1.42;0.80;;;18.70;73.10;;;;;;5057635;28;20111;-68
2021/10/28 18:58:06;;;;;;;1.70;1.27;;;18.70;73.10;;;;;;5065505;28;20021;-68
2021/10/28 19:00:32;;;;;;;1.73;1.10;;;18.70;73.10;;;;;;5065962;28;20021;-69
2021/10/28 19:02:58;;;;;;;1.20;0.90;;;18.70;73.10;;;;;;5063108;28;20023;-68
2021/10/28 19:05:24;;;;;;;1.27;1.00;;;18.70;73.10;;;;;;5062724;28;20020;-68
2021/10/28 19:07:49;;;;;;;1.65;1.00;;;18.70;73.20;;;;;;5054596;28;20068;-68
2021/10/28 19:10:15;;;;;;;1.25;0.80;;;18.70;73.10;;;;;;5069055;28;20381;-68
2021/10/28 19:12:41;;;;;;;0.90;0.77;;;18.70;73.20;;;;;;5075871;28;20470;-68
2021/10/28 19:15:07;;;;;;;0.70;0.70;;;18.70;73.20;;;;;;5074357;28;20474;-68
2021/10/28 19:17:33;;;;;;;0.90;0.90;;;18.70;73.10;;;;;;5074438;28;20085;-68
2021/10/28 19:20:00;;;;;;;0.98;0.80;;;18.70;73.10;;;;;;5074537;28;20021;-68
2021/10/28 19:22:30;;;;;;;1.58;1.08;;;18.70;73.20;;;;;;5074507;28;20024;-69
2021/10/28 19:24:57;;;;;;;1.02;0.80;;;18.70;73.10;;;;;;5067701;28;20116;-68
2021/10/28 19:27:23;;;;;;;1.10;0.93;;;18.70;73.20;;;;;;5054442;28;20059;-68
2021/10/28 19:29:57;;;;;;;2.30;1.00;;;18.70;73.20;;;;;;5053306;28;20013;-68
2021/10/28 19:32:24;;;;;;;1.27;1.00;;;18.70;73.20;;;;;;5055527;28;20025;-68
2021/10/28 19:34:50;;;;;;;2.55;1.00;;;18.70;73.20;;;;;;5054047;28;20025;-68
2021/10/28 19:37:36;;;;;;;1.20;0.85;;;18.70;73.20;;;;;;5044895;28;20031;-69
2021/10/28 19:45:30;;;;;;;0.95;0.82;;;18.70;73.20;;;;;;5044159;28;20067;-68
2021/10/28 19:47:56;;;;;;;1.08;0.90;;;18.60;73.30;;;;;;5063749;28;20162;-68
2021/10/28 19:50:22;;;;;;;1.73;0.90;;;18.70;73.30;;;;;;5067300;28;20092;-68
2021/10/28 19:52:48;;;;;;;0.98;0.90;;;18.70;73.30;;;;;;5056846;28;20021;-68
2021/10/28 19:55:14;;;;;;;1.33;0.93;;;18.70;73.30;;;;;;5070600;28;20028;-68
2021/10/28 19:57:47;;;;;;;0.98;0.80;;;18.70;73.30;;;;;;5062467;28;20025;-68
2021/10/28 20:21:32;;;;;;;2.00;0.95;;;18.70;73.50;;;;;;4972258;28;20065;-68
2021/10/28 20:23:58;;;;;;;1.65;0.95;;;18.70;73.50;;;;;;5012023;28;20033;-68
2021/10/28 20:26:23;;;;;;;1.42;0.80;;;18.70;73.50;;;;;;4981078;28;20039;-68
2021/10/28 20:28:50;;;;;;;0.80;0.70;;;18.70;73.50;;;;;;4976054;28;20030;-68
2021/10/28 20:31:20;;;;;;;2.10;0.88;;;18.70;73.50;;;;;;4976698;28;20027;-68
2021/10/28 20:33:53;;;;;;;0.70;0.70;;;18.70;73.50;;;;;;4977261;28;20018;-68
2021/10/28 20:38:51;;;;;;;1.98;1.20;;;18.70;73.50;;;;;;5024749;28;20043;-68
2021/10/28 20:41:17;;;;;;;1.10;1.00;;;18.70;73.50;;;;;;5054295;28;20021;-68
2021/10/28 20:43:43;;;;;;;2.22;1.30;;;18.70;73.50;;;;;;5035684;28;20025;-68
2021/10/28 20:46:09;;;;;;;1.15;0.90;;;18.70;73.50;;;;;;5054016;28;20047;-68
2021/10/28 20:48:40;;;;;;;1.13;0.70;;;18.70;73.50;;;;;;5053980;28;20481;-68
2021/10/28 20:51:07;;;;;;;0.77;0.77;;;18.70;73.50;;;;;;5053981;28;20024;-68
2021/10/28 20:53:32;;;;;;;0.82;0.80;;;18.70;73.60;;;;;;5036304;28;20256;-68
2021/10/28 20:55:59;;;;;;;0.68;0.68;;;18.70;73.60;;;;;;5052893;28;20025;-68
2021/10/28 20:58:24;;;;;;;0.88;0.88;;;18.70;73.60;;;;;;5053497;28;20017;-68
2021/10/28 21:00:50;;;;;;;2.75;1.00;;;18.70;73.60;;;;;;5036025;28;20044;-68
2021/10/28 21:03:15;;;;;;;1.10;0.85;;;18.70;73.60;;;;;;5053711;28;20029;-68
2021/10/28 21:05:41;;;;;;;1.15;1.00;;;18.70;73.60;;;;;;5053689;28;20112;-68
2021/10/28 21:08:07;;;;;;;0.70;0.70;;;18.70;73.60;;;;;;5051985;28;20136;-68
2021/10/28 21:10:33;;;;;;;0.80;0.80;;;18.70;73.60;;;;;;5052444;28;20033;-68
2021/10/28 21:12:59;;;;;;;1.52;0.98;;;18.70;73.50;;;;;;5053085;28;20056;-68
2021/10/28 21:15:24;;;;;;;0.60;0.60;;;18.70;73.50;;;;;;5052581;28;20029;-68
2021/10/28 21:17:50;;;;;;;1.05;0.90;;;18.70;73.60;;;;;;5053418;28;20025;-69
2021/10/28 21:20:16;;;;;;;1.27;0.95;;;18.70;73.60;;;;;;5052026;28;20108;-68
2021/10/28 21:22:41;;;;;;;1.30;0.80;;;18.70;73.60;;;;;;5052237;28;20025;-68
2021/10/28 21:25:08;;;;;;;0.80;0.80;;;18.70;73.70;;;;;;5051924;28;20024;-68
2021/10/28 21:27:33;;;;;;;1.58;0.77;;;18.70;73.70;;;;;;5053069;28;20106;-68
2021/10/28 21:29:59;;;;;;;1.20;1.10;;;18.60;73.60;;;;;;5053183;28;20487;-68
2021/10/28 21:32:25;;;;;;;1.63;0.90;;;18.70;73.70;;;;;;5053230;28;20050;-68
2021/10/28 21:34:50;;;;;;;0.70;0.70;;;18.70;73.70;;;;;;5052159;28;20033;-68
2021/10/28 21:37:16;;;;;;;0.88;0.88;;;18.70;73.60;;;;;;5053121;28;20059;-68
2021/10/28 21:39:42;;;;;;;0.80;0.80;;;18.70;73.60;;;;;;5051861;28;20102;-68
2021/10/28 21:42:08;;;;;;;2.03;1.10;;;18.60;73.60;;;;;;5051377;28;20028;-68
2021/10/28 21:44:35;;;;;;;1.15;1.05;;;18.70;74.70;;;;;;5051915;28;20037;-68
2021/10/28 21:47:01;;;;;;;1.00;0.90;;;18.70;73.70;;;;;;5052751;28;20025;-68
2021/10/28 21:49:26;;;;;;;1.02;0.90;;;18.70;73.70;;;;;;5051659;28;20478;-68
2021/10/28 21:51:56;;;;;;;0.88;0.82;;;18.70;73.60;;;;;;5051667;28;20032;-68
2021/10/28 21:57:18;;;;;;;1.35;1.13;;;18.70;73.70;;;;;;5052836;28;20032;-68
2021/10/28 22:24:27;;;;;;;1.15;1.05;;;18.60;73.80;;;;;;5036907;28;20068;-68
2021/10/28 22:26:53;;;;;;;1.83;1.20;;;18.60;73.90;;;;;;5052338;28;20024;-68
2021/10/28 22:29:18;;;;;;;0.57;0.57;;;18.70;73.90;;;;;;5034213;28;20025;-68
2021/10/28 22:31:44;;;;;;;0.90;0.80;;;18.60;73.90;;;;;;5050622;28;20037;-68
2021/10/28 22:34:10;;;;;;;1.15;0.80;;;18.70;74.00;;;;;;5051069;28;20025;-68
2021/10/28 22:37:21;;;;;;;1.20;1.00;;;18.70;73.90;;;;;;5052444;28;20070;-68